sensor_id;sensor_type;location;lat;lon;timestamp;temperature;humidity
28193;DHT22;15473;50.840;3.396;2022-08-19T00:00:09;18.90;99.90
28193;DHT22;15473;50.840;3.396;2022-08-19T00:02:41;18.80;99.90
28193;DHT22;15473;50.840;3.396;2022-08-19T00:05:12;18.80;99.90
28193;DHT22;15473;50.840;3.396;2022-08-19T00:07:43;18.70;99.90
28193;DHT22;15473;50.840;3.396;2022-08-19T00:10:15;18.70;99.90
28193;DHT22;15473;50.840;3.396;2022-08-19T00:12:45;18.70;99.90
28193;DHT22;15473;50.840;3.396;2022-08-19T00:15:18;18.70;99.90
28193;DHT22;15473;50.840;3.396;2022-08-19T00:17:48;18.70;99.90
28193;DHT22;15473;50.840;3.396;2022-08-19T00:20:20;18.60;99.90
28193;DHT22;15473;50.840;3.396;2022-08-19T00:22:50;18.60;99.90
28193;DHT22;15473;50.840;3.396;2022-08-19T00:25:21;18.60;99.90
28193;DHT22;15473;50.840;3.396;2022-08-19T00:27:51;18.60;99.90
28193;DHT22;15473;50.840;3.396;2022-08-19T00:30:21;18.50;99.90
28193;DHT22;15473;50.840;3.396;2022-08-19T00:32:51;18.50;99.90
28193;DHT22;15473;50.840;3.396;2022-08-19T00:35:23;18.50;99.90
28193;DHT22;15473;50.840;3.396;2022-08-19T00:37:53;18.50;99.90
28193;DHT22;15473;50.840;3.396;2022-08-19T00:40:24;18.50;99.90
28193;DHT22;15473;50.840;3.396;2022-08-19T00:42:54;18.50;99.90
28193;DHT22;15473;50.840;3.396;2022-08-19T00:45:26;18.50;99.90
28193;DHT22;15473;50.840;3.396;2022-08-19T00:47:58;18.50;99.90
28193;DHT22;15473;50.840;3.396;2022-08-19T00:50:31;18.40;99.90
28193;DHT22;15473;50.840;3.396;2022-08-19T00:53:02;18.40;99.90
28193;DHT22;15473;50.840;3.396;2022-08-19T00:55:33;18.40;99.90
28193;DHT22;15473;50.840;3.396;2022-08-19T00:58:10;18.40;99.90
28193;DHT22;15473;50.840;3.396;2022-08-19T01:00:38;18.30;99.90
28193;DHT22;15473;50.840;3.396;2022-08-19T01:03:12;18.30;99.90
28193;DHT22;15473;50.840;3.396;2022-08-19T01:05:43;18.30;99.90
28193;DHT22;15473;50.840;3.396;2022-08-19T01:08:16;18.30;99.90
28193;DHT22;15473;50.840;3.396;2022-08-19T01:10:52;18.30;99.90
28193;DHT22;15473;50.840;3.396;2022-08-19T01:13:23;18.30;99.90
28193;DHT22;15473;50.840;3.396;2022-08-19T01:15:57;18.30;99.90
28193;DHT22;15473;50.840;3.396;2022-08-19T01:18:28;18.30;99.90
28193;DHT22;15473;50.840;3.396;2022-08-19T01:21:02;18.20;99.90
28193;DHT22;15473;50.840;3.396;2022-08-19T01:23:33;18.20;99.90
28193;DHT22;15473;50.840;3.396;2022-08-19T01:26:15;18.20;99.90
28193;DHT22;15473;50.840;3.396;2022-08-19T01:28:47;18.20;99.90
28193;DHT22;15473;50.840;3.396;2022-08-19T01:31:21;18.10;99.90
28193;DHT22;15473;50.840;3.396;2022-08-19T01:33:52;18.10;99.90
28193;DHT22;15473;50.840;3.396;2022-08-19T01:36:26;18.10;99.90
28193;DHT22;15473;50.840;3.396;2022-08-19T01:38:56;18.00;99.90
28193;DHT22;15473;50.840;3.396;2022-08-19T01:41:27;17.90;99.90
28193;DHT22;15473;50.840;3.396;2022-08-19T01:43:57;17.90;99.90
28193;DHT22;15473;50.840;3.396;2022-08-19T01:46:27;17.90;99.90
28193;DHT22;15473;50.840;3.396;2022-08-19T01:48:57;17.90;99.90
28193;DHT22;15473;50.840;3.396;2022-08-19T01:51:32;17.90;99.90
28193;DHT22;15473;50.840;3.396;2022-08-19T01:54:02;17.90;99.90
28193;DHT22;15473;50.840;3.396;2022-08-19T01:56:32;17.90;99.90
28193;DHT22;15473;50.840;3.396;2022-08-19T01:59:05;17.80;99.90
28193;DHT22;15473;50.840;3.396;2022-08-19T02:01:36;17.80;99.90
28193;DHT22;15473;50.840;3.396;2022-08-19T02:04:06;17.80;99.90
28193;DHT22;15473;50.840;3.396;2022-08-19T02:06:37;17.80;99.90
28193;DHT22;15473;50.840;3.396;2022-08-19T02:09:08;17.70;99.90
28193;DHT22;15473;50.840;3.396;2022-08-19T02:11:38;17.60;99.90
28193;DHT22;15473;50.840;3.396;2022-08-19T02:14:09;17.50;99.90
28193;DHT22;15473;50.840;3.396;2022-08-19T02:16:39;17.50;99.90
28193;DHT22;15473;50.840;3.396;2022-08-19T02:19:09;17.40;99.90
28193;DHT22;15473;50.840;3.396;2022-08-19T02:21:39;17.40;99.90
28193;DHT22;15473;50.840;3.396;2022-08-19T02:24:09;17.40;99.90
28193;DHT22;15473;50.840;3.396;2022-08-19T02:26:39;17.40;99.90
28193;DHT22;15473;50.840;3.396;2022-08-19T02:29:09;17.40;99.90
28193;DHT22;15473;50.840;3.396;2022-08-19T02:31:39;17.40;99.90
28193;DHT22;15473;50.840;3.396;2022-08-19T02:34:09;17.50;99.90
28193;DHT22;15473;50.840;3.396;2022-08-19T02:36:39;17.50;99.90
28193;DHT22;15473;50.840;3.396;2022-08-19T02:39:10;17.60;99.90
28193;DHT22;15473;50.840;3.396;2022-08-19T02:41:40;17.70;99.90
28193;DHT22;15473;50.840;3.396;2022-08-19T02:44:10;17.80;99.90
28193;DHT22;15473;50.840;3.396;2022-08-19T02:46:41;17.80;99.90
28193;DHT22;15473;50.840;3.396;2022-08-19T02:49:12;17.90;99.90
28193;DHT22;15473;50.840;3.396;2022-08-19T02:51:45;17.90;99.90
28193;DHT22;15473;50.840;3.396;2022-08-19T02:54:15;17.80;99.90
28193;DHT22;15473;50.840;3.396;2022-08-19T02:56:45;17.80;99.90
28193;DHT22;15473;50.840;3.396;2022-08-19T02:59:15;17.80;99.90
28193;DHT22;15473;50.840;3.396;2022-08-19T03:01:46;17.80;99.90
28193;DHT22;15473;50.840;3.396;2022-08-19T03:04:16;17.80;99.90
28193;DHT22;15473;50.840;3.396;2022-08-19T03:06:47;17.80;99.90
28193;DHT22;15473;50.840;3.396;2022-08-19T03:09:18;17.80;99.90
28193;DHT22;15473;50.840;3.396;2022-08-19T03:11:49;17.80;99.90
28193;DHT22;15473;50.840;3.396;2022-08-19T03:14:19;17.90;99.90
28193;DHT22;15473;50.840;3.396;2022-08-19T03:16:51;17.90;99.90
28193;DHT22;15473;50.840;3.396;2022-08-19T03:19:21;17.90;99.90
28193;DHT22;15473;50.840;3.396;2022-08-19T03:21:51;17.80;99.90
28193;DHT22;15473;50.840;3.396;2022-08-19T03:24:21;17.80;99.90
28193;DHT22;15473;50.840;3.396;2022-08-19T03:26:54;17.80;99.90
28193;DHT22;15473;50.840;3.396;2022-08-19T03:29:27;17.80;99.90
28193;DHT22;15473;50.840;3.396;2022-08-19T03:32:02;17.70;99.90
28193;DHT22;15473;50.840;3.396;2022-08-19T03:34:34;17.80;99.90
28193;DHT22;15473;50.840;3.396;2022-08-19T03:37:07;17.80;99.90
28193;DHT22;15473;50.840;3.396;2022-08-19T03:39:38;17.70;99.90
28193;DHT22;15473;50.840;3.396;2022-08-19T03:42:09;17.70;99.90
28193;DHT22;15473;50.840;3.396;2022-08-19T03:44:39;17.60;99.90
28193;DHT22;15473;50.840;3.396;2022-08-19T03:47:11;17.60;99.90
28193;DHT22;15473;50.840;3.396;2022-08-19T03:49:43;17.60;99.90
28193;DHT22;15473;50.840;3.396;2022-08-19T03:52:13;17.50;99.90
28193;DHT22;15473;50.840;3.396;2022-08-19T03:54:43;17.50;99.90
28193;DHT22;15473;50.840;3.396;2022-08-19T03:57:13;17.40;99.90
28193;DHT22;15473;50.840;3.396;2022-08-19T03:59:43;17.50;99.90
28193;DHT22;15473;50.840;3.396;2022-08-19T04:02:13;17.50;99.90
28193;DHT22;15473;50.840;3.396;2022-08-19T04:04:44;17.60;99.90
28193;DHT22;15473;50.840;3.396;2022-08-19T04:07:15;17.60;99.90
28193;DHT22;15473;50.840;3.396;2022-08-19T04:09:45;17.60;99.90
28193;DHT22;15473;50.840;3.396;2022-08-19T04:12:15;17.60;99.90
28193;DHT22;15473;50.840;3.396;2022-08-19T04:14:45;17.70;99.90
28193;DHT22;15473;50.840;3.396;2022-08-19T04:17:15;17.80;99.90
28193;DHT22;15473;50.840;3.396;2022-08-19T04:19:45;17.90;99.90
28193;DHT22;15473;50.840;3.396;2022-08-19T04:22:15;18.00;99.90
28193;DHT22;15473;50.840;3.396;2022-08-19T04:24:45;18.00;99.90
28193;DHT22;15473;50.840;3.396;2022-08-19T04:27:15;18.00;99.90
28193;DHT22;15473;50.840;3.396;2022-08-19T04:29:45;18.10;99.90
28193;DHT22;15473;50.840;3.396;2022-08-19T04:32:16;18.00;99.90
28193;DHT22;15473;50.840;3.396;2022-08-19T04:34:46;18.10;99.90
28193;DHT22;15473;50.840;3.396;2022-08-19T04:37:16;18.00;99.90
28193;DHT22;15473;50.840;3.396;2022-08-19T04:39:46;18.00;99.90
28193;DHT22;15473;50.840;3.396;2022-08-19T04:42:34;17.90;99.90
28193;DHT22;15473;50.840;3.396;2022-08-19T04:45:13;17.90;99.90
28193;DHT22;15473;50.840;3.396;2022-08-19T04:47:44;18.00;99.90
28193;DHT22;15473;50.840;3.396;2022-08-19T04:50:15;18.00;99.90
28193;DHT22;15473;50.840;3.396;2022-08-19T04:52:45;17.90;99.90
28193;DHT22;15473;50.840;3.396;2022-08-19T04:55:15;18.00;99.90
28193;DHT22;15473;50.840;3.396;2022-08-19T04:57:45;18.00;99.90
28193;DHT22;15473;50.840;3.396;2022-08-19T05:00:15;18.00;99.90
28193;DHT22;15473;50.840;3.396;2022-08-19T05:02:45;18.10;99.90
28193;DHT22;15473;50.840;3.396;2022-08-19T05:05:15;18.20;99.90
28193;DHT22;15473;50.840;3.396;2022-08-19T05:07:46;18.30;99.90
28193;DHT22;15473;50.840;3.396;2022-08-19T05:10:16;18.40;99.90
28193;DHT22;15473;50.840;3.396;2022-08-19T05:12:46;18.60;99.90
28193;DHT22;15473;50.840;3.396;2022-08-19T05:15:18;18.70;99.90
28193;DHT22;15473;50.840;3.396;2022-08-19T05:17:48;18.80;99.90
28193;DHT22;15473;50.840;3.396;2022-08-19T05:20:38;18.90;99.90
28193;DHT22;15473;50.840;3.396;2022-08-19T05:23:26;18.90;99.90
28193;DHT22;15473;50.840;3.396;2022-08-19T05:25:56;19.10;99.90
28193;DHT22;15473;50.840;3.396;2022-08-19T05:28:27;19.10;99.90
28193;DHT22;15473;50.840;3.396;2022-08-19T05:30:58;19.30;99.90
28193;DHT22;15473;50.840;3.396;2022-08-19T05:33:28;19.50;99.90
28193;DHT22;15473;50.840;3.396;2022-08-19T05:36:01;19.60;99.90
28193;DHT22;15473;50.840;3.396;2022-08-19T05:38:32;19.80;99.90
28193;DHT22;15473;50.840;3.396;2022-08-19T05:41:07;19.80;99.90
28193;DHT22;15473;50.840;3.396;2022-08-19T05:43:38;19.80;99.90
28193;DHT22;15473;50.840;3.396;2022-08-19T05:46:08;19.90;99.90
28193;DHT22;15473;50.840;3.396;2022-08-19T05:48:41;19.80;99.90
28193;DHT22;15473;50.840;3.396;2022-08-19T05:51:11;19.80;99.90
28193;DHT22;15473;50.840;3.396;2022-08-19T05:53:42;19.80;99.90
28193;DHT22;15473;50.840;3.396;2022-08-19T05:56:15;19.80;99.90
28193;DHT22;15473;50.840;3.396;2022-08-19T05:58:46;19.80;99.90
28193;DHT22;15473;50.840;3.396;2022-08-19T06:01:18;20.00;99.90
28193;DHT22;15473;50.840;3.396;2022-08-19T06:03:48;20.10;99.90
28193;DHT22;15473;50.840;3.396;2022-08-19T06:06:19;20.10;99.90
28193;DHT22;15473;50.840;3.396;2022-08-19T06:08:49;20.00;99.90
28193;DHT22;15473;50.840;3.396;2022-08-19T06:11:35;20.00;99.90
28193;DHT22;15473;50.840;3.396;2022-08-19T06:13:55;19.90;99.90
28193;DHT22;15473;50.840;3.396;2022-08-19T06:16:28;20.00;99.90
28193;DHT22;15473;50.840;3.396;2022-08-19T06:19:02;20.30;99.90
28193;DHT22;15473;50.840;3.396;2022-08-19T06:21:33;20.50;99.90
28193;DHT22;15473;50.840;3.396;2022-08-19T06:24:07;20.60;99.90
28193;DHT22;15473;50.840;3.396;2022-08-19T06:26:41;20.60;99.90
28193;DHT22;15473;50.840;3.396;2022-08-19T06:29:15;20.70;99.90
28193;DHT22;15473;50.840;3.396;2022-08-19T06:31:48;20.70;99.90
28193;DHT22;15473;50.840;3.396;2022-08-19T06:34:20;20.70;99.90
28193;DHT22;15473;50.840;3.396;2022-08-19T06:36:51;20.60;99.90
28193;DHT22;15473;50.840;3.396;2022-08-19T06:39:24;20.50;99.90
28193;DHT22;15473;50.840;3.396;2022-08-19T06:41:57;20.70;99.90
28193;DHT22;15473;50.840;3.396;2022-08-19T06:44:29;20.70;99.90
28193;DHT22;15473;50.840;3.396;2022-08-19T06:47:04;20.70;99.90
28193;DHT22;15473;50.840;3.396;2022-08-19T06:49:35;20.70;99.90
28193;DHT22;15473;50.840;3.396;2022-08-19T06:52:06;20.70;99.90
28193;DHT22;15473;50.840;3.396;2022-08-19T06:54:36;20.80;99.90
28193;DHT22;15473;50.840;3.396;2022-08-19T06:57:06;20.80;99.90
28193;DHT22;15473;50.840;3.396;2022-08-19T06:59:40;20.90;99.90
28193;DHT22;15473;50.840;3.396;2022-08-19T07:02:10;21.00;99.90
28193;DHT22;15473;50.840;3.396;2022-08-19T07:04:40;21.10;99.90
28193;DHT22;15473;50.840;3.396;2022-08-19T07:07:13;21.20;99.90
28193;DHT22;15473;50.840;3.396;2022-08-19T07:09:44;21.20;99.90
28193;DHT22;15473;50.840;3.396;2022-08-19T07:12:14;21.20;99.90
28193;DHT22;15473;50.840;3.396;2022-08-19T07:14:44;21.30;99.90
28193;DHT22;15473;50.840;3.396;2022-08-19T07:17:15;21.30;99.90
28193;DHT22;15473;50.840;3.396;2022-08-19T07:19:45;21.30;99.90
28193;DHT22;15473;50.840;3.396;2022-08-19T07:22:15;21.40;99.90
28193;DHT22;15473;50.840;3.396;2022-08-19T07:24:46;21.40;99.90
28193;DHT22;15473;50.840;3.396;2022-08-19T07:27:16;21.60;99.90
28193;DHT22;15473;50.840;3.396;2022-08-19T07:29:47;21.60;99.90
28193;DHT22;15473;50.840;3.396;2022-08-19T07:32:17;21.70;99.90
28193;DHT22;15473;50.840;3.396;2022-08-19T07:34:47;21.70;99.90
28193;DHT22;15473;50.840;3.396;2022-08-19T07:37:17;21.70;99.90
28193;DHT22;15473;50.840;3.396;2022-08-19T07:39:47;21.60;99.90
28193;DHT22;15473;50.840;3.396;2022-08-19T07:42:17;21.60;99.90
28193;DHT22;15473;50.840;3.396;2022-08-19T07:44:49;21.50;99.90
28193;DHT22;15473;50.840;3.396;2022-08-19T07:47:19;21.50;99.90
28193;DHT22;15473;50.840;3.396;2022-08-19T07:49:49;21.50;99.90
28193;DHT22;15473;50.840;3.396;2022-08-19T07:52:19;21.60;99.90
28193;DHT22;15473;50.840;3.396;2022-08-19T07:54:49;21.60;99.90
28193;DHT22;15473;50.840;3.396;2022-08-19T07:57:19;21.70;99.90
28193;DHT22;15473;50.840;3.396;2022-08-19T07:59:49;21.70;99.90
28193;DHT22;15473;50.840;3.396;2022-08-19T08:02:19;21.70;99.90
28193;DHT22;15473;50.840;3.396;2022-08-19T08:04:50;21.70;99.90
28193;DHT22;15473;50.840;3.396;2022-08-19T08:07:38;21.60;99.90
28193;DHT22;15473;50.840;3.396;2022-08-19T08:10:26;21.70;99.90
28193;DHT22;15473;50.840;3.396;2022-08-19T08:12:56;21.80;99.90
28193;DHT22;15473;50.840;3.396;2022-08-19T08:15:26;21.80;99.90
28193;DHT22;15473;50.840;3.396;2022-08-19T08:17:56;21.80;99.90
28193;DHT22;15473;50.840;3.396;2022-08-19T08:20:26;21.90;99.90
28193;DHT22;15473;50.840;3.396;2022-08-19T08:22:56;22.00;99.90
28193;DHT22;15473;50.840;3.396;2022-08-19T08:25:44;22.10;99.90
28193;DHT22;15473;50.840;3.396;2022-08-19T08:28:16;22.10;99.90
28193;DHT22;15473;50.840;3.396;2022-08-19T08:30:47;22.00;99.90
28193;DHT22;15473;50.840;3.396;2022-08-19T08:36:12;21.90;99.90
28193;DHT22;15473;50.840;3.396;2022-08-19T08:38:44;22.10;99.90
28193;DHT22;15473;50.840;3.396;2022-08-19T08:44:21;22.50;99.90
28193;DHT22;15473;50.840;3.396;2022-08-19T08:49:45;22.80;99.90
28193;DHT22;15473;50.840;3.396;2022-08-19T08:52:26;23.00;99.90
28193;DHT22;15473;50.840;3.396;2022-08-19T08:55:04;23.30;99.90
28193;DHT22;15473;50.840;3.396;2022-08-19T09:03:29;23.90;99.90
28193;DHT22;15473;50.840;3.396;2022-08-19T09:06:04;23.90;99.90
28193;DHT22;15473;50.840;3.396;2022-08-19T09:11:55;23.50;99.90
28193;DHT22;15473;50.840;3.396;2022-08-19T09:17:21;24.20;99.90
28193;DHT22;15473;50.840;3.396;2022-08-19T09:20:01;24.60;99.90
28193;DHT22;15473;50.840;3.396;2022-08-19T09:22:27;24.80;99.90
28193;DHT22;15473;50.840;3.396;2022-08-19T09:24:57;24.80;99.90
28193;DHT22;15473;50.840;3.396;2022-08-19T09:27:28;24.70;99.90
28193;DHT22;15473;50.840;3.396;2022-08-19T09:30:26;24.60;99.90
28193;DHT22;15473;50.840;3.396;2022-08-19T09:32:51;24.80;99.90
28193;DHT22;15473;50.840;3.396;2022-08-19T09:35:23;24.80;99.90
28193;DHT22;15473;50.840;3.396;2022-08-19T09:37:55;24.70;99.90
28193;DHT22;15473;50.840;3.396;2022-08-19T09:40:27;24.50;99.90
28193;DHT22;15473;50.840;3.396;2022-08-19T09:42:58;24.30;99.90
28193;DHT22;15473;50.840;3.396;2022-08-19T09:45:49;24.40;99.90
28193;DHT22;15473;50.840;3.396;2022-08-19T09:48:19;24.40;99.90
28193;DHT22;15473;50.840;3.396;2022-08-19T09:50:50;24.40;99.90
28193;DHT22;15473;50.840;3.396;2022-08-19T09:53:20;24.30;99.90
28193;DHT22;15473;50.840;3.396;2022-08-19T09:55:51;24.20;99.90
28193;DHT22;15473;50.840;3.396;2022-08-19T09:58:21;24.00;99.90
28193;DHT22;15473;50.840;3.396;2022-08-19T10:00:54;23.90;99.90
28193;DHT22;15473;50.840;3.396;2022-08-19T10:03:26;23.80;99.90
28193;DHT22;15473;50.840;3.396;2022-08-19T10:05:57;23.80;99.90
28193;DHT22;15473;50.840;3.396;2022-08-19T10:11:20;23.90;99.90
28193;DHT22;15473;50.840;3.396;2022-08-19T10:13:50;23.80;99.90
28193;DHT22;15473;50.840;3.396;2022-08-19T10:16:21;23.80;99.90
28193;DHT22;15473;50.840;3.396;2022-08-19T10:18:53;23.70;99.90
28193;DHT22;15473;50.840;3.396;2022-08-19T10:21:29;23.80;99.90
28193;DHT22;15473;50.840;3.396;2022-08-19T10:24:02;23.90;99.90
28193;DHT22;15473;50.840;3.396;2022-08-19T10:26:35;24.00;99.90
28193;DHT22;15473;50.840;3.396;2022-08-19T10:29:05;24.10;99.90
28193;DHT22;15473;50.840;3.396;2022-08-19T10:31:36;24.20;99.90
28193;DHT22;15473;50.840;3.396;2022-08-19T10:34:06;24.30;99.90
28193;DHT22;15473;50.840;3.396;2022-08-19T10:36:37;24.40;99.90
28193;DHT22;15473;50.840;3.396;2022-08-19T10:39:09;24.50;99.90
28193;DHT22;15473;50.840;3.396;2022-08-19T10:41:40;24.50;99.90
28193;DHT22;15473;50.840;3.396;2022-08-19T10:44:13;24.50;99.90
28193;DHT22;15473;50.840;3.396;2022-08-19T10:46:44;24.50;99.90
28193;DHT22;15473;50.840;3.396;2022-08-19T10:49:16;24.60;99.90
28193;DHT22;15473;50.840;3.396;2022-08-19T10:51:48;24.70;99.90
28193;DHT22;15473;50.840;3.396;2022-08-19T10:54:36;24.50;99.90
28193;DHT22;15473;50.840;3.396;2022-08-19T10:57:24;24.30;99.90
28193;DHT22;15473;50.840;3.396;2022-08-19T10:59:56;24.00;99.90
28193;DHT22;15473;50.840;3.396;2022-08-19T11:02:26;23.80;99.90
28193;DHT22;15473;50.840;3.396;2022-08-19T11:04:56;23.70;99.90
28193;DHT22;15473;50.840;3.396;2022-08-19T11:07:26;23.50;99.90
28193;DHT22;15473;50.840;3.396;2022-08-19T11:09:56;23.30;99.90
28193;DHT22;15473;50.840;3.396;2022-08-19T11:12:26;23.20;99.90
28193;DHT22;15473;50.840;3.396;2022-08-19T11:14:56;23.20;99.90
28193;DHT22;15473;50.840;3.396;2022-08-19T11:17:26;23.20;99.90
28193;DHT22;15473;50.840;3.396;2022-08-19T11:19:56;23.30;99.90
28193;DHT22;15473;50.840;3.396;2022-08-19T11:22:26;23.50;99.90
28193;DHT22;15473;50.840;3.396;2022-08-19T11:24:56;23.50;99.90
28193;DHT22;15473;50.840;3.396;2022-08-19T11:27:28;23.70;99.90
28193;DHT22;15473;50.840;3.396;2022-08-19T11:29:58;23.90;99.90
28193;DHT22;15473;50.840;3.396;2022-08-19T11:32:29;23.90;99.90
28193;DHT22;15473;50.840;3.396;2022-08-19T11:35:00;23.90;99.90
28193;DHT22;15473;50.840;3.396;2022-08-19T11:37:30;23.80;99.90
28193;DHT22;15473;50.840;3.396;2022-08-19T11:40:01;23.90;99.90
28193;DHT22;15473;50.840;3.396;2022-08-19T11:42:31;23.90;99.90
28193;DHT22;15473;50.840;3.396;2022-08-19T11:45:19;24.10;99.90
28193;DHT22;15473;50.840;3.396;2022-08-19T11:47:49;24.30;99.90
28193;DHT22;15473;50.840;3.396;2022-08-19T11:50:19;24.50;99.90
28193;DHT22;15473;50.840;3.396;2022-08-19T11:52:52;24.90;99.90
28193;DHT22;15473;50.840;3.396;2022-08-19T11:55:23;25.10;99.90
28193;DHT22;15473;50.840;3.396;2022-08-19T11:57:53;25.40;99.90
28193;DHT22;15473;50.840;3.396;2022-08-19T12:00:23;25.50;99.90
28193;DHT22;15473;50.840;3.396;2022-08-19T12:02:53;25.50;99.90
28193;DHT22;15473;50.840;3.396;2022-08-19T12:05:23;25.50;99.90
28193;DHT22;15473;50.840;3.396;2022-08-19T12:07:53;25.50;99.90
28193;DHT22;15473;50.840;3.396;2022-08-19T12:10:25;25.50;99.90
28193;DHT22;15473;50.840;3.396;2022-08-19T12:12:55;25.60;99.90
28193;DHT22;15473;50.840;3.396;2022-08-19T12:15:26;25.60;99.90
28193;DHT22;15473;50.840;3.396;2022-08-19T12:17:57;25.30;99.90
28193;DHT22;15473;50.840;3.396;2022-08-19T12:20:27;24.90;99.90
28193;DHT22;15473;50.840;3.396;2022-08-19T12:22:58;24.50;99.90
28193;DHT22;15473;50.840;3.396;2022-08-19T12:25:28;24.20;99.90
28193;DHT22;15473;50.840;3.396;2022-08-19T12:27:59;23.90;99.90
28193;DHT22;15473;50.840;3.396;2022-08-19T12:30:29;23.90;99.90
28193;DHT22;15473;50.840;3.396;2022-08-19T12:32:59;23.90;99.90
28193;DHT22;15473;50.840;3.396;2022-08-19T12:35:29;24.20;99.90
28193;DHT22;15473;50.840;3.396;2022-08-19T12:37:59;24.60;99.90
28193;DHT22;15473;50.840;3.396;2022-08-19T12:40:31;25.00;99.90
28193;DHT22;15473;50.840;3.396;2022-08-19T12:43:01;25.20;99.90
28193;DHT22;15473;50.840;3.396;2022-08-19T12:45:31;25.40;99.90
28193;DHT22;15473;50.840;3.396;2022-08-19T12:48:01;25.50;99.90
28193;DHT22;15473;50.840;3.396;2022-08-19T12:50:32;25.80;99.90
28193;DHT22;15473;50.840;3.396;2022-08-19T12:53:02;25.90;99.90
28193;DHT22;15473;50.840;3.396;2022-08-19T12:55:32;26.10;99.90
28193;DHT22;15473;50.840;3.396;2022-08-19T12:58:02;26.20;99.90
28193;DHT22;15473;50.840;3.396;2022-08-19T13:00:32;26.40;99.90
28193;DHT22;15473;50.840;3.396;2022-08-19T13:03:02;26.60;99.90
28193;DHT22;15473;50.840;3.396;2022-08-19T13:05:33;26.80;99.90
28193;DHT22;15473;50.840;3.396;2022-08-19T13:08:23;26.90;99.90
28193;DHT22;15473;50.840;3.396;2022-08-19T13:10:53;26.70;99.90
28193;DHT22;15473;50.840;3.396;2022-08-19T13:13:24;26.60;99.90
28193;DHT22;15473;50.840;3.396;2022-08-19T13:15:59;26.50;99.90
28193;DHT22;15473;50.840;3.396;2022-08-19T13:18:28;26.40;99.90
28193;DHT22;15473;50.840;3.396;2022-08-19T13:21:03;26.10;99.90
28193;DHT22;15473;50.840;3.396;2022-08-19T13:23:34;25.80;99.90
28193;DHT22;15473;50.840;3.396;2022-08-19T13:26:06;25.50;99.90
28193;DHT22;15473;50.840;3.396;2022-08-19T13:28:37;25.30;99.90
28193;DHT22;15473;50.840;3.396;2022-08-19T13:31:28;25.10;99.90
28193;DHT22;15473;50.840;3.396;2022-08-19T13:34:19;25.10;99.90
28193;DHT22;15473;50.840;3.396;2022-08-19T13:36:49;24.90;99.90
28193;DHT22;15473;50.840;3.396;2022-08-19T13:39:23;24.90;99.90
28193;DHT22;15473;50.840;3.396;2022-08-19T13:41:53;24.80;99.90
28193;DHT22;15473;50.840;3.396;2022-08-19T13:44:23;24.80;99.90
28193;DHT22;15473;50.840;3.396;2022-08-19T13:46:53;24.80;99.90
28193;DHT22;15473;50.840;3.396;2022-08-19T13:49:23;24.70;99.90
28193;DHT22;15473;50.840;3.396;2022-08-19T13:51:53;24.60;99.90
28193;DHT22;15473;50.840;3.396;2022-08-19T13:54:23;24.60;99.90
28193;DHT22;15473;50.840;3.396;2022-08-19T13:56:53;24.60;99.90
28193;DHT22;15473;50.840;3.396;2022-08-19T13:59:23;24.70;99.90
28193;DHT22;15473;50.840;3.396;2022-08-19T14:01:58;24.70;99.90
28193;DHT22;15473;50.840;3.396;2022-08-19T14:04:29;24.80;99.90
28193;DHT22;15473;50.840;3.396;2022-08-19T14:06:59;24.80;99.90
28193;DHT22;15473;50.840;3.396;2022-08-19T14:09:30;24.80;99.90
28193;DHT22;15473;50.840;3.396;2022-08-19T14:12:00;24.90;99.90
28193;DHT22;15473;50.840;3.396;2022-08-19T14:14:30;25.00;99.90
28193;DHT22;15473;50.840;3.396;2022-08-19T14:17:08;24.90;99.90
28193;DHT22;15473;50.840;3.396;2022-08-19T14:19:38;25.00;99.90
28193;DHT22;15473;50.840;3.396;2022-08-19T14:22:08;25.00;99.90
28193;DHT22;15473;50.840;3.396;2022-08-19T14:24:38;24.90;99.90
28193;DHT22;15473;50.840;3.396;2022-08-19T14:27:08;24.90;99.90
28193;DHT22;15473;50.840;3.396;2022-08-19T14:29:40;24.90;99.90
28193;DHT22;15473;50.840;3.396;2022-08-19T14:32:12;24.80;99.90
28193;DHT22;15473;50.840;3.396;2022-08-19T14:34:42;24.80;99.90
28193;DHT22;15473;50.840;3.396;2022-08-19T14:37:15;24.70;99.90
28193;DHT22;15473;50.840;3.396;2022-08-19T14:39:45;24.70;99.90
28193;DHT22;15473;50.840;3.396;2022-08-19T14:42:15;24.80;99.90
28193;DHT22;15473;50.840;3.396;2022-08-19T14:44:45;24.90;99.90
28193;DHT22;15473;50.840;3.396;2022-08-19T14:47:15;25.00;99.90
28193;DHT22;15473;50.840;3.396;2022-08-19T14:49:45;25.10;99.90
28193;DHT22;15473;50.840;3.396;2022-08-19T14:52:15;25.20;99.90
28193;DHT22;15473;50.840;3.396;2022-08-19T14:54:45;25.00;99.90
28193;DHT22;15473;50.840;3.396;2022-08-19T14:57:16;25.00;99.90
28193;DHT22;15473;50.840;3.396;2022-08-19T14:59:46;25.00;99.90
28193;DHT22;15473;50.840;3.396;2022-08-19T15:02:16;25.30;99.90
28193;DHT22;15473;50.840;3.396;2022-08-19T15:04:46;25.50;99.90
28193;DHT22;15473;50.840;3.396;2022-08-19T15:07:16;25.70;99.90
28193;DHT22;15473;50.840;3.396;2022-08-19T15:09:48;25.80;99.90
28193;DHT22;15473;50.840;3.396;2022-08-19T15:12:19;25.90;99.90
28193;DHT22;15473;50.840;3.396;2022-08-19T15:14:52;26.00;99.90
28193;DHT22;15473;50.840;3.396;2022-08-19T15:17:23;26.10;99.90
28193;DHT22;15473;50.840;3.396;2022-08-19T15:19:53;26.20;99.90
28193;DHT22;15473;50.840;3.396;2022-08-19T15:22:24;26.10;99.90
28193;DHT22;15473;50.840;3.396;2022-08-19T15:24:54;26.00;99.90
28193;DHT22;15473;50.840;3.396;2022-08-19T15:27:25;25.90;99.90
28193;DHT22;15473;50.840;3.396;2022-08-19T15:29:55;25.90;99.90
28193;DHT22;15473;50.840;3.396;2022-08-19T15:32:25;25.80;99.90
28193;DHT22;15473;50.840;3.396;2022-08-19T15:34:57;25.90;99.90
28193;DHT22;15473;50.840;3.396;2022-08-19T15:37:28;25.90;99.90
28193;DHT22;15473;50.840;3.396;2022-08-19T15:39:58;25.90;99.90
28193;DHT22;15473;50.840;3.396;2022-08-19T15:42:28;25.90;99.90
28193;DHT22;15473;50.840;3.396;2022-08-19T15:45:00;25.90;99.90
28193;DHT22;15473;50.840;3.396;2022-08-19T15:47:30;25.90;99.90
28193;DHT22;15473;50.840;3.396;2022-08-19T15:50:04;25.90;99.90
28193;DHT22;15473;50.840;3.396;2022-08-19T15:52:32;25.80;99.90
28193;DHT22;15473;50.840;3.396;2022-08-19T15:55:04;25.60;99.90
28193;DHT22;15473;50.840;3.396;2022-08-19T15:57:35;25.40;99.90
28193;DHT22;15473;50.840;3.396;2022-08-19T16:00:16;25.30;99.90
28193;DHT22;15473;50.840;3.396;2022-08-19T16:03:05;25.20;99.90
28193;DHT22;15473;50.840;3.396;2022-08-19T16:05:53;25.10;99.90
28193;DHT22;15473;50.840;3.396;2022-08-19T16:08:40;25.10;99.90
28193;DHT22;15473;50.840;3.396;2022-08-19T16:11:12;25.10;99.90
28193;DHT22;15473;50.840;3.396;2022-08-19T16:13:43;25.00;99.90
28193;DHT22;15473;50.840;3.396;2022-08-19T16:16:13;25.00;99.90
28193;DHT22;15473;50.840;3.396;2022-08-19T16:18:43;25.00;99.90
28193;DHT22;15473;50.840;3.396;2022-08-19T16:21:15;24.90;99.90